Time;durP1;ratioP1;P1;durP2;ratioP2;P2;SDS_P1;SDS_P2;PMS_P1;PMS_P2;Temp;Humidity;BMP_temperature;BMP_pressure;BME280_temperature;BME280_humidity;BME280_pressure;Samples;Min_cycle;Max_cycle;Signal;HPM_P1;HPM_P2
2021/09/01 00:01:36;;;;;;;12.25;10.88;;;11.20;99.90;;;;;;5105485;28;20730;-82
2021/09/01 00:04:01;;;;;;;11.60;10.40;;;11.20;99.90;;;;;;5105542;28;20425;-81
2021/09/01 00:06:27;;;;;;;13.50;11.77;;;11.20;99.90;;;;;;5086961;28;20964;-84
2021/09/01 00:08:55;;;;;;;13.02;11.25;;;11.20;99.90;;;;;;5087265;28;20390;-78
2021/09/01 00:11:22;;;;;;;12.20;10.90;;;11.20;99.90;;;;;;5096730;28;20439;-82
2021/09/01 00:13:48;;;;;;;12.98;11.60;;;11.20;99.90;;;;;;5091959;28;20361;-83
2021/09/01 00:16:26;;;;;;;13.98;12.48;;;11.10;99.90;;;;;;5091490;28;20815;-79
2021/09/01 00:18:59;;;;;;;11.97;10.77;;;11.20;99.90;;;;;;5089887;28;20804;-78
2021/09/01 00:21:25;;;;;;;11.85;10.65;;;11.20;99.90;;;;;;5073019;28;20455;-80
2021/09/01 00:23:51;;;;;;;13.40;11.40;;;11.20;99.90;;;;;;5091507;28;20931;-82
2021/09/01 00:26:18;;;;;;;13.75;11.43;;;11.20;99.90;;;;;;5091395;28;20388;-80
2021/09/01 00:28:44;;;;;;;13.60;10.85;;;11.10;99.90;;;;;;5091550;28;20393;-82
2021/09/01 00:31:09;;;;;;;14.55;10.70;;;11.10;99.90;;;;;;5091307;28;20368;-82
2021/09/01 00:33:35;;;;;;;12.80;11.40;;;11.10;99.90;;;;;;5091272;28;20372;-83
2021/09/01 00:36:01;;;;;;;11.97;10.77;;;11.10;99.90;;;;;;5091216;28;20369;-83
2021/09/01 00:38:26;;;;;;;13.88;11.30;;;11.10;99.90;;;;;;5091045;28;20376;-81
2021/09/01 00:40:56;;;;;;;12.50;11.20;;;11.10;99.90;;;;;;5091359;28;20373;-79
2021/09/01 00:43:26;;;;;;;14.65;12.40;;;11.10;99.90;;;;;;5072906;28;20821;-79
2021/09/01 00:45:52;;;;;;;13.68;11.73;;;11.10;99.90;;;;;;5091216;28;20449;-82
2021/09/01 00:48:23;;;;;;;15.60;13.52;;;11.10;99.90;;;;;;5091133;28;20850;-79
2021/09/01 00:50:50;;;;;;;15.32;13.25;;;11.00;99.90;;;;;;5090999;28;20380;-80
2021/09/01 00:53:17;;;;;;;15.63;14.02;;;11.00;99.90;;;;;;5072682;28;20377;-83
2021/09/01 00:55:47;;;;;;;17.48;14.82;;;11.00;99.90;;;;;;5072632;28;20404;-81
2021/09/01 00:58:16;;;;;;;18.23;16.05;;;11.10;99.90;;;;;;5072671;28;20376;-84
2021/09/01 01:01:27;;;;;;;18.00;16.10;;;11.10;99.90;;;;;;5072409;28;20400;-81
2021/09/01 01:03:28;;;;;;;17.55;14.55;;;11.10;99.90;;;;;;5079930;28;20388;-81
2021/09/01 01:05:56;;;;;;;16.30;13.77;;;11.20;99.90;;;;;;5091073;28;20794;-83
2021/09/01 01:08:22;;;;;;;18.40;15.40;;;11.20;99.90;;;;;;5090922;28;20384;-80
2021/09/01 01:10:47;;;;;;;15.82;14.13;;;11.30;99.90;;;;;;5091332;28;21034;-83
2021/09/01 01:13:16;;;;;;;17.10;14.63;;;11.40;99.90;;;;;;5091245;28;20441;-81
2021/09/01 01:15:41;;;;;;;17.73;15.27;;;11.50;99.90;;;;;;5072895;28;20459;-81
2021/09/01 01:18:09;;;;;;;17.50;15.30;;;11.50;99.90;;;;;;5090742;28;20455;-81
2021/09/01 01:20:36;;;;;;;19.27;16.52;;;11.60;99.90;;;;;;5091362;28;21627;-80
2021/09/01 01:23:02;;;;;;;20.58;17.17;;;11.70;99.90;;;;;;5089980;28;20408;-80
2021/09/01 01:25:48;;;;;;;19.23;16.85;;;11.70;99.90;;;;;;5073102;28;20834;-81
2021/09/01 01:28:14;;;;;;;22.80;18.65;;;11.80;99.90;;;;;;5090453;28;20392;-82
2021/09/01 01:30:41;;;;;;;23.08;18.50;;;11.90;99.90;;;;;;5090854;28;20376;-82
2021/09/01 01:33:06;;;;;;;22.52;19.45;;;11.90;99.90;;;;;;5091201;28;20376;-79
2021/09/01 01:35:36;;;;;;;20.48;18.17;;;11.90;99.90;;;;;;5091512;28;20842;-80
2021/09/01 01:38:07;;;;;;;23.25;19.58;;;12.00;99.90;;;;;;5091042;28;20369;-81
2021/09/01 01:40:33;;;;;;;22.80;19.60;;;11.90;99.90;;;;;;5072667;28;20491;-81
2021/09/01 01:42:59;;;;;;;23.50;20.83;;;11.90;99.90;;;;;;5090895;28;20368;-83
2021/09/01 01:45:32;;;;;;;25.50;21.30;;;11.90;99.90;;;;;;5090707;28;20372;-82
2021/09/01 01:47:57;;;;;;;23.23;20.13;;;11.90;99.90;;;;;;5090453;28;20372;-82
2021/09/01 01:50:23;;;;;;;26.88;21.13;;;12.00;99.90;;;;;;5090759;28;20734;-82
2021/09/01 01:52:49;;;;;;;23.67;19.90;;;12.10;99.90;;;;;;5090625;28;20869;-82
2021/09/01 01:55:14;;;;;;;23.63;20.50;;;12.10;99.90;;;;;;5090459;28;20372;-80
2021/09/01 01:57:40;;;;;;;24.13;20.60;;;12.10;99.90;;;;;;5090271;28;20726;-80
2021/09/01 02:00:07;;;;;;;25.63;20.80;;;12.10;99.90;;;;;;5071625;28;20411;-83
2021/09/01 02:02:33;;;;;;;28.37;21.73;;;12.00;99.90;;;;;;5090536;28;20765;-81
2021/09/01 02:05:00;;;;;;;25.10;22.20;;;12.00;99.90;;;;;;5090306;28;20383;-82
2021/09/01 02:07:27;;;;;;;29.35;23.20;;;11.90;99.90;;;;;;5089736;28;20372;-81
2021/09/01 02:09:53;;;;;;;32.28;24.77;;;11.90;99.90;;;;;;5071903;28;20379;-80
2021/09/01 02:12:19;;;;;;;30.35;24.63;;;11.80;99.90;;;;;;5089841;28;20404;-82
2021/09/01 02:14:44;;;;;;;24.73;21.80;;;11.90;99.90;;;;;;5089331;28;20396;-80
2021/09/01 02:17:10;;;;;;;28.63;23.20;;;11.90;99.90;;;;;;5089722;28;20369;-82
2021/09/01 02:19:36;;;;;;;27.55;23.75;;;12.00;99.90;;;;;;5089358;28;20445;-82
2021/09/01 02:22:02;;;;;;;24.85;21.75;;;12.00;99.90;;;;;;5089260;28;20384;-81
2021/09/01 02:24:28;;;;;;;30.10;25.00;;;12.00;99.90;;;;;;5089546;28;20381;-82
2021/09/01 02:26:55;;;;;;;27.00;23.52;;;12.00;99.90;;;;;;5089283;28;20383;-82
2021/09/01 02:29:21;;;;;;;27.58;23.05;;;11.90;99.90;;;;;;5089376;28;20372;-79
2021/09/01 02:31:46;;;;;;;28.52;23.77;;;11.90;99.90;;;;;;5071130;28;20384;-80
2021/09/01 02:34:12;;;;;;;26.27;22.53;;;11.90;99.90;;;;;;5089079;28;20383;-80
2021/09/01 02:36:38;;;;;;;29.63;24.57;;;11.90;99.90;;;;;;5070895;28;20371;-82
2021/09/01 02:39:04;;;;;;;27.65;23.75;;;11.90;99.90;;;;;;5089151;28;20407;-80
2021/09/01 02:41:30;;;;;;;29.33;24.33;;;11.90;99.90;;;;;;5089036;28;20434;-81
2021/09/01 02:43:56;;;;;;;27.67;23.92;;;11.90;99.90;;;;;;5089172;28;20369;-79
2021/09/01 02:46:21;;;;;;;27.10;23.75;;;11.90;99.90;;;;;;5070921;28;20723;-80
2021/09/01 02:48:48;;;;;;;25.35;22.30;;;11.90;99.90;;;;;;5088979;28;20464;-80
2021/09/01 02:51:13;;;;;;;26.50;23.10;;;11.90;99.90;;;;;;5089208;28;20377;-79
2021/09/01 02:53:39;;;;;;;25.77;22.98;;;11.90;99.90;;;;;;5089086;28;20368;-80
2021/09/01 02:56:05;;;;;;;28.65;24.35;;;11.90;99.90;;;;;;5089319;28;20464;-82
2021/09/01 02:58:31;;;;;;;27.37;23.30;;;12.00;99.90;;;;;;5070477;28;20422;-79
2021/09/01 03:00:56;;;;;;;26.73;23.03;;;12.00;99.90;;;;;;5088976;28;20389;-80
2021/09/01 03:03:22;;;;;;;27.75;23.08;;;12.00;99.90;;;;;;5088860;28;20391;-81
2021/09/01 03:05:48;;;;;;;29.90;24.67;;;12.00;99.90;;;;;;5070599;28;20697;-80
2021/09/01 03:08:13;;;;;;;28.90;24.80;;;12.00;99.90;;;;;;5088674;28;20418;-81
2021/09/01 03:10:39;;;;;;;28.30;24.92;;;11.90;99.90;;;;;;5088827;28;20376;-82
2021/09/01 03:13:05;;;;;;;29.73;26.35;;;11.80;99.90;;;;;;5088652;28;20376;-82
2021/09/01 03:15:31;;;;;;;31.57;26.37;;;11.70;99.90;;;;;;5088725;28;20411;-81
2021/09/01 03:17:57;;;;;;;30.65;26.35;;;11.70;99.90;;;;;;5070444;28;20858;-81
2021/09/01 03:20:22;;;;;;;30.67;27.45;;;11.70;99.90;;;;;;5088289;28;20411;-80
2021/09/01 03:22:48;;;;;;;35.22;29.23;;;11.80;99.90;;;;;;5070801;28;20396;-79
2021/09/01 03:25:13;;;;;;;33.73;28.23;;;11.70;99.90;;;;;;5088620;28;20387;-83
2021/09/01 03:27:39;;;;;;;31.60;27.20;;;11.70;99.90;;;;;;5089011;28;20368;-82
2021/09/01 03:30:05;;;;;;;35.20;27.87;;;11.80;99.90;;;;;;5070593;28;20404;-81
2021/09/01 03:32:31;;;;;;;33.15;28.20;;;11.80;99.90;;;;;;5088414;28;20380;-82
2021/09/01 03:34:56;;;;;;;33.67;28.03;;;11.90;99.90;;;;;;5088358;28;20375;-79
2021/09/01 03:37:23;;;;;;;34.87;28.70;;;11.90;99.90;;;;;;5088180;28;20371;-82
2021/09/01 03:39:49;;;;;;;33.60;27.67;;;11.80;99.90;;;;;;5088118;28;20396;-82
2021/09/01 03:42:15;;;;;;;29.85;26.55;;;11.90;99.90;;;;;;5070179;28;20750;-81
2021/09/01 03:44:41;;;;;;;31.83;27.90;;;11.90;99.90;;;;;;5088364;28;20395;-81
2021/09/01 03:47:06;;;;;;;30.80;26.43;;;11.90;99.90;;;;;;5072604;28;20912;-80
2021/09/01 03:49:32;;;;;;;31.47;27.77;;;11.90;99.90;;;;;;5091662;28;20917;-83
2021/09/01 03:51:58;;;;;;;29.52;26.08;;;11.80;99.90;;;;;;5092342;28;20365;-82
2021/09/01 03:54:23;;;;;;;29.92;26.60;;;11.80;99.90;;;;;;5092040;28;20809;-83
2021/09/01 03:56:49;;;;;;;36.37;29.43;;;11.80;99.90;;;;;;5092299;28;20769;-82
2021/09/01 03:59:14;;;;;;;34.50;28.05;;;11.70;99.90;;;;;;5091705;28;20432;-80
2021/09/01 04:01:40;;;;;;;31.63;26.07;;;11.80;99.90;;;;;;5092174;28;20385;-82
2021/09/01 04:04:07;;;;;;;36.53;27.87;;;11.80;99.90;;;;;;5091756;28;20372;-80
2021/09/01 04:06:33;;;;;;;33.42;28.33;;;11.80;99.90;;;;;;5091980;28;20428;-82
2021/09/01 04:08:59;;;;;;;32.33;28.08;;;11.70;99.90;;;;;;5091567;28;20368;-80
2021/09/01 04:11:25;;;;;;;31.45;26.48;;;11.70;99.90;;;;;;5091871;28;20477;-79
2021/09/01 04:13:51;;;;;;;35.10;27.27;;;11.70;99.90;;;;;;5091861;28;20801;-82
2021/09/01 04:16:17;;;;;;;32.70;26.97;;;11.60;99.90;;;;;;5091978;28;20944;-82
2021/09/01 04:18:43;;;;;;;32.80;27.03;;;11.60;99.90;;;;;;5091276;28;20373;-81
2021/09/01 04:21:08;;;;;;;34.03;26.60;;;11.60;99.90;;;;;;5091636;28;20862;-81
2021/09/01 04:23:34;;;;;;;31.77;26.33;;;11.70;99.90;;;;;;5073496;28;20910;-81
2021/09/01 04:25:59;;;;;;;32.23;26.80;;;11.70;99.90;;;;;;5091533;28;20388;-81
2021/09/01 04:28:25;;;;;;;33.58;25.77;;;11.80;99.90;;;;;;5091216;28;20372;-83
2021/09/01 04:30:51;;;;;;;34.10;26.88;;;11.70;99.90;;;;;;5091244;28;20794;-83
2021/09/01 04:33:16;;;;;;;32.70;25.87;;;11.70;99.90;;;;;;5090825;28;20889;-80
2021/09/01 04:35:42;;;;;;;32.88;25.92;;;11.70;99.90;;;;;;5091322;28;20430;-80
2021/09/01 04:38:08;;;;;;;31.77;25.30;;;11.70;99.90;;;;;;5073183;28;20438;-81
2021/09/01 04:40:33;;;;;;;32.10;25.33;;;11.70;99.90;;;;;;5090881;28;20763;-83
2021/09/01 04:42:59;;;;;;;33.57;25.20;;;11.80;99.90;;;;;;5073015;28;20376;-82
2021/09/01 04:45:25;;;;;;;32.55;25.85;;;11.80;99.90;;;;;;5072902;28;20738;-82
2021/09/01 04:47:50;;;;;;;30.40;25.13;;;11.80;99.90;;;;;;5091060;28;20384;-83
2021/09/01 04:50:16;;;;;;;31.80;25.50;;;11.80;99.90;;;;;;5090801;28;20372;-82
2021/09/01 04:52:42;;;;;;;30.20;25.43;;;11.80;99.90;;;;;;5091005;28;20368;-83
2021/09/01 04:55:08;;;;;;;30.85;24.60;;;11.80;99.90;;;;;;5090778;28;20377;-83
2021/09/01 04:57:34;;;;;;;32.97;25.47;;;12.00;99.90;;;;;;5090764;28;20365;-82
2021/09/01 05:00:00;;;;;;;35.00;26.17;;;11.90;99.90;;;;;;5090595;28;20454;-83
2021/09/01 05:02:26;;;;;;;31.80;25.83;;;12.00;99.90;;;;;;5072653;28;20886;-81
2021/09/01 05:04:51;;;;;;;30.30;24.65;;;11.90;99.90;;;;;;5090585;28;20376;-83
2021/09/01 05:07:17;;;;;;;30.02;24.30;;;12.00;99.90;;;;;;5090541;28;20421;-82
2021/09/01 05:09:43;;;;;;;30.53;24.30;;;12.00;99.90;;;;;;5072616;28;20397;-83
2021/09/01 05:12:09;;;;;;;30.23;25.17;;;12.10;99.90;;;;;;5090505;28;20373;-82
2021/09/01 05:14:34;;;;;;;29.02;23.15;;;12.10;99.90;;;;;;5072389;28;20372;-84
2021/09/01 05:17:00;;;;;;;26.15;23.23;;;12.20;99.90;;;;;;5090322;28;20379;-82
2021/09/01 05:19:26;;;;;;;27.40;23.37;;;12.30;99.90;;;;;;5090282;28;20499;-81
2021/09/01 05:21:53;;;;;;;27.38;23.27;;;12.30;99.90;;;;;;5090844;28;20726;-82
2021/09/01 05:24:42;;;;;;;26.35;22.77;;;12.30;99.90;;;;;;5090895;28;20369;-81
2021/09/01 05:27:11;;;;;;;26.53;21.73;;;12.40;99.90;;;;;;5090675;28;20522;-82
2021/09/01 05:29:42;;;;;;;26.98;21.25;;;12.50;99.90;;;;;;5072448;28;20749;-84
2021/09/01 05:32:16;;;;;;;25.27;20.95;;;12.50;99.90;;;;;;5091053;28;20376;-83
2021/09/01 05:34:42;;;;;;;23.40;20.40;;;12.50;99.90;;;;;;5090992;28;20473;-84
2021/09/01 05:37:11;;;;;;;23.90;20.27;;;12.60;99.90;;;;;;5090697;28;20884;-85
2021/09/01 05:39:40;;;;;;;24.17;20.65;;;12.70;99.90;;;;;;5072149;28;20408;-82
2021/09/01 05:42:06;;;;;;;22.92;20.08;;;12.70;99.90;;;;;;5090801;28;20383;-84
2021/09/01 05:44:32;;;;;;;21.63;19.27;;;12.70;99.90;;;;;;5091120;28;20369;-84
2021/09/01 05:46:58;;;;;;;22.13;19.65;;;12.80;99.90;;;;;;5090455;28;20376;-82
2021/09/01 05:49:25;;;;;;;23.23;20.33;;;12.90;99.90;;;;;;5070787;28;20817;-82
2021/09/01 05:51:51;;;;;;;23.52;18.73;;;12.90;99.90;;;;;;5088641;28;20384;-80
2021/09/01 05:54:17;;;;;;;22.23;18.97;;;13.00;99.90;;;;;;5071824;28;20402;-83
2021/09/01 05:56:46;;;;;;;23.85;18.95;;;13.00;99.90;;;;;;5089913;28;20462;-81
2021/09/01 05:59:16;;;;;;;22.48;18.88;;;13.10;99.90;;;;;;5090179;28;20889;-82
2021/09/01 06:01:49;;;;;;;18.80;16.15;;;13.20;99.90;;;;;;5090275;28;20995;-81
2021/09/01 06:04:17;;;;;;;19.10;16.43;;;13.40;99.90;;;;;;5090142;28;20391;-83
2021/09/01 06:06:49;;;;;;;17.60;15.75;;;13.50;99.90;;;;;;5089560;28;20464;-82
2021/09/01 06:09:14;;;;;;;17.25;15.43;;;13.70;99.90;;;;;;5071009;28;20376;-81
2021/09/01 06:11:45;;;;;;;16.73;15.02;;;13.80;99.90;;;;;;5089809;28;20373;-80
2021/09/01 06:14:11;;;;;;;16.60;14.55;;;13.90;99.90;;;;;;5089514;28;20381;-82
2021/09/01 06:16:37;;;;;;;16.53;14.77;;;14.00;99.90;;;;;;5089639;28;20380;-80
2021/09/01 06:19:02;;;;;;;16.40;13.83;;;14.10;99.90;;;;;;5089542;28;20392;-80
2021/09/01 06:21:28;;;;;;;14.65;12.32;;;14.20;99.90;;;;;;5089244;28;20399;-79
2021/09/01 06:23:55;;;;;;;13.20;11.17;;;14.40;99.90;;;;;;5071290;28;20383;-83
2021/09/01 06:26:21;;;;;;;14.23;10.88;;;14.60;99.90;;;;;;5089508;28;20388;-83
2021/09/01 06:28:47;;;;;;;14.93;11.15;;;14.80;99.90;;;;;;5070829;28;20374;-80
2021/09/01 06:31:13;;;;;;;15.52;11.50;;;15.00;99.90;;;;;;5088912;28;20379;-79
2021/09/01 06:33:38;;;;;;;13.32;11.93;;;15.10;99.90;;;;;;5071192;28;20874;-81
2021/09/01 06:36:04;;;;;;;16.70;12.30;;;15.10;99.90;;;;;;5089510;28;20364;-81
2021/09/01 06:38:30;;;;;;;14.15;11.25;;;15.20;99.90;;;;;;5089459;28;20414;-81
2021/09/01 06:40:55;;;;;;;13.77;11.05;;;15.30;99.90;;;;;;5089354;28;20946;-82
2021/09/01 06:43:21;;;;;;;15.73;11.17;;;15.50;99.90;;;;;;5071011;28;20436;-83
2021/09/01 06:45:48;;;;;;;12.60;11.33;;;15.70;99.90;;;;;;5089194;28;20373;-80
2021/09/01 06:48:14;;;;;;;13.05;11.65;;;15.80;99.90;;;;;;5089018;28;20388;-83
2021/09/01 06:50:39;;;;;;;14.30;11.67;;;15.80;99.90;;;;;;5070762;28;20432;-81
2021/09/01 06:53:07;;;;;;;16.03;12.97;;;15.90;99.90;;;;;;5071063;28;20848;-83
2021/09/01 06:55:33;;;;;;;14.15;12.52;;;15.90;99.90;;;;;;5070783;28;20384;-81
2021/09/01 06:57:58;;;;;;;15.53;12.83;;;16.10;99.90;;;;;;5071205;28;20726;-81
2021/09/01 07:00:24;;;;;;;14.50;12.95;;;16.20;99.90;;;;;;5089178;28;20396;-83
2021/09/01 07:02:49;;;;;;;15.43;12.80;;;16.30;99.90;;;;;;5087914;28;20392;-81
2021/09/01 07:05:16;;;;;;;14.82;12.77;;;16.50;99.90;;;;;;5088898;28;21016;-82
2021/09/01 07:07:43;;;;;;;16.20;13.07;;;16.70;99.90;;;;;;5089107;28;20376;-81
2021/09/01 07:10:09;;;;;;;14.93;13.05;;;16.70;99.90;;;;;;5089037;28;20965;-86
2021/09/01 07:12:35;;;;;;;16.50;13.85;;;16.90;99.90;;;;;;5088666;28;20368;-82
2021/09/01 07:15:01;;;;;;;15.63;13.83;;;17.10;99.90;;;;;;5088032;28;20746;-80
2021/09/01 07:17:26;;;;;;;16.02;14.15;;;17.10;99.90;;;;;;5087705;28;20380;-83
2021/09/01 07:19:52;;;;;;;16.40;14.67;;;17.10;99.90;;;;;;5087271;28;20453;-82
2021/09/01 07:22:18;;;;;;;17.57;15.60;;;16.90;99.90;;;;;;5090203;28;20372;-80
2021/09/01 07:24:43;;;;;;;19.60;16.17;;;16.70;99.90;;;;;;5090731;28;20372;-84
2021/09/01 07:27:10;;;;;;;18.97;16.97;;;16.60;99.90;;;;;;5090003;28;20372;-81
2021/09/01 07:29:35;;;;;;;22.15;17.98;;;16.40;99.90;;;;;;5089942;28;20404;-82
2021/09/01 07:32:01;;;;;;;20.50;18.30;;;16.30;99.90;;;;;;5090477;28;20427;-82
2021/09/01 07:34:27;;;;;;;21.50;18.00;;;16.20;99.90;;;;;;5089246;28;20368;-80
2021/09/01 07:36:52;;;;;;;20.57;18.37;;;16.20;99.90;;;;;;5089739;28;20873;-82
2021/09/01 07:39:18;;;;;;;20.33;18.23;;;16.20;99.90;;;;;;5091594;28;20777;-81
2021/09/01 07:41:43;;;;;;;19.87;17.77;;;16.20;99.90;;;;;;5090376;28;20376;-81
2021/09/01 07:44:09;;;;;;;20.27;18.08;;;16.30;99.90;;;;;;5090510;28;20746;-81
2021/09/01 07:46:35;;;;;;;19.60;17.27;;;16.40;99.90;;;;;;5091799;28;20381;-83
2021/09/01 07:49:01;;;;;;;19.48;17.40;;;16.70;99.90;;;;;;5089616;28;20415;-81
2021/09/01 07:51:30;;;;;;;19.35;17.23;;;16.70;99.90;;;;;;5092049;28;20369;-81
2021/09/01 07:53:56;;;;;;;21.50;18.38;;;16.70;99.90;;;;;;5091627;28;20459;-82
2021/09/01 07:56:21;;;;;;;18.30;16.23;;;16.70;99.90;;;;;;5073338;28;20941;-80
2021/09/01 07:58:47;;;;;;;20.58;17.63;;;16.90;99.90;;;;;;5085257;28;20500;-84
2021/09/01 08:01:13;;;;;;;19.00;17.10;;;16.80;99.90;;;;;;5091681;28;20375;-81
2021/09/01 08:03:38;;;;;;;20.43;17.53;;;16.70;99.90;;;;;;5072919;28;20947;-81
2021/09/01 08:06:07;;;;;;;18.75;16.58;;;16.50;99.90;;;;;;5091772;28;20365;-80
2021/09/01 08:08:33;;;;;;;20.15;16.52;;;16.30;99.90;;;;;;5091372;28;20738;-80
2021/09/01 08:10:59;;;;;;;19.02;17.05;;;16.20;99.90;;;;;;5090903;28;20384;-81
2021/09/01 08:13:25;;;;;;;16.63;14.98;;;16.10;99.90;;;;;;5091124;28;20448;-81
2021/09/01 08:15:50;;;;;;;17.17;15.35;;;16.10;99.90;;;;;;5072691;28;20974;-83
2021/09/01 08:18:16;;;;;;;17.25;15.38;;;16.10;99.90;;;;;;5091252;28;20741;-81
2021/09/01 08:20:41;;;;;;;17.63;15.83;;;16.30;99.90;;;;;;5091181;28;20403;-80
2021/09/01 08:23:07;;;;;;;16.30;14.60;;;16.20;99.90;;;;;;5090723;28;20858;-81
2021/09/01 08:25:33;;;;;;;15.80;14.10;;;16.20;99.90;;;;;;5091070;28;20802;-83
2021/09/01 08:27:58;;;;;;;15.18;13.68;;;16.20;99.90;;;;;;5090957;28;20410;-81
2021/09/01 08:30:24;;;;;;;16.07;14.37;;;16.30;99.90;;;;;;5072965;28;20391;-82
2021/09/01 08:32:50;;;;;;;15.73;13.93;;;16.20;99.90;;;;;;5090371;28;20934;-81
2021/09/01 08:35:15;;;;;;;15.40;13.80;;;16.20;99.90;;;;;;5091116;28;20418;-81
2021/09/01 08:37:41;;;;;;;16.02;14.35;;;16.30;99.90;;;;;;5091342;28;20430;-81
2021/09/01 08:40:07;;;;;;;15.53;13.93;;;16.40;99.90;;;;;;5090783;28;20455;-81
2021/09/01 08:42:35;;;;;;;16.02;14.43;;;16.30;99.90;;;;;;5088699;28;20817;-84
2021/09/01 08:45:01;;;;;;;16.83;15.13;;;16.10;99.90;;;;;;5072598;28;20436;-84
2021/09/01 08:47:27;;;;;;;17.42;15.73;;;16.00;99.90;;;;;;5072415;28;20493;-83
2021/09/01 08:49:53;;;;;;;18.80;16.80;;;15.90;99.90;;;;;;5090553;28;20448;-79
2021/09/01 08:52:19;;;;;;;19.07;17.17;;;15.70;99.90;;;;;;5090122;28;20889;-84
2021/09/01 08:54:44;;;;;;;19.10;17.10;;;15.60;99.90;;;;;;5089128;28;20468;-80
2021/09/01 08:57:12;;;;;;;19.58;17.60;;;15.50;99.90;;;;;;5082625;28;20534;-83
2021/09/01 08:59:38;;;;;;;19.67;17.67;;;15.40;99.90;;;;;;5071625;28;20404;-84
2021/09/01 09:02:39;;;;;;;19.10;17.10;;;15.40;99.90;;;;;;5090106;28;20466;-81
2021/09/01 09:05:07;;;;;;;17.95;16.23;;;15.40;99.90;;;;;;4998363;28;20375;-79
2021/09/01 09:07:53;;;;;;;17.73;15.93;;;15.40;99.90;;;;;;5073477;28;20377;-82
2021/09/01 09:10:37;;;;;;;19.25;16.90;;;15.50;99.90;;;;;;5088527;28;20384;-80
2021/09/01 09:13:08;;;;;;;17.73;15.98;;;15.60;99.90;;;;;;5069593;28;20730;-84
2021/09/01 09:15:34;;;;;;;19.13;16.90;;;15.70;99.90;;;;;;5088854;28;20484;-81
2021/09/01 09:18:01;;;;;;;17.85;16.00;;;15.80;99.90;;;;;;5087227;28;20365;-81
2021/09/01 09:20:30;;;;;;;17.73;15.85;;;15.90;99.90;;;;;;5089903;28;20447;-84
2021/09/01 09:22:57;;;;;;;18.23;16.42;;;15.90;99.90;;;;;;5088997;28;20438;-80
2021/09/01 09:25:31;;;;;;;17.58;15.68;;;16.00;99.90;;;;;;5088898;28;20960;-81
2021/09/01 09:28:05;;;;;;;17.40;14.85;;;16.00;99.90;;;;;;5089245;28;20842;-80
2021/09/01 09:30:36;;;;;;;16.52;14.82;;;16.30;99.90;;;;;;5089086;28;20372;-80
2021/09/01 09:33:02;;;;;;;17.00;15.20;;;16.30;99.90;;;;;;5086730;28;20380;-82
2021/09/01 09:35:50;;;;;;;16.13;14.47;;;16.50;99.90;;;;;;5070246;28;20389;-80
2021/09/01 09:38:28;;;;;;;16.65;14.30;;;16.60;99.90;;;;;;5087723;28;20368;-81
2021/09/01 09:40:55;;;;;;;14.88;13.30;;;16.80;99.90;;;;;;5070302;28;20435;-81
2021/09/01 09:43:23;;;;;;;15.50;13.90;;;16.90;99.90;;;;;;5088498;28;20376;-80
2021/09/01 09:46:13;;;;;;;16.42;14.68;;;16.90;99.90;;;;;;5090088;28;20447;-81
2021/09/01 09:48:44;;;;;;;15.30;13.60;;;16.90;99.90;;;;;;5071831;28;20398;-81
2021/09/01 09:51:12;;;;;;;15.05;13.45;;;16.80;99.90;;;;;;5088591;28;20372;-83
2021/09/01 09:53:46;;;;;;;15.70;14.10;;;16.80;99.90;;;;;;5069498;28;20392;-81
2021/09/01 09:56:24;;;;;;;14.13;12.82;;;16.90;99.90;;;;;;5088033;28;20731;-80
2021/09/01 09:58:52;;;;;;;14.90;13.35;;;17.00;99.90;;;;;;5070172;28;20411;-82
2021/09/01 10:01:19;;;;;;;14.57;13.07;;;17.00;99.90;;;;;;5088240;28;20488;-80
2021/09/01 10:03:45;;;;;;;15.18;13.68;;;17.20;99.90;;;;;;5088191;28;20376;-82
2021/09/01 10:06:17;;;;;;;13.88;12.48;;;17.40;99.90;;;;;;5089114;28;20514;-83
2021/09/01 10:08:44;;;;;;;13.63;12.07;;;17.50;99.90;;;;;;5089206;28;20453;-83
2021/09/01 10:11:11;;;;;;;12.88;11.52;;;17.40;99.90;;;;;;5089598;28;20396;-82
2021/09/01 10:13:39;;;;;;;13.53;12.10;;;17.60;99.90;;;;;;5090357;28;20433;-81
2021/09/01 10:16:20;;;;;;;14.63;13.03;;;17.70;99.90;;;;;;5089613;28;20379;-82
2021/09/01 10:18:58;;;;;;;14.77;12.68;;;17.80;99.90;;;;;;5070985;28;20459;-80
2021/09/01 10:21:26;;;;;;;13.85;12.55;;;17.70;99.90;;;;;;5088991;28;20464;-82
2021/09/01 10:23:53;;;;;;;13.23;11.57;;;17.70;99.90;;;;;;5088530;28;21161;-80
2021/09/01 10:26:20;;;;;;;13.20;11.90;;;17.60;99.90;;;;;;5070556;28;20377;-81
2021/09/01 10:28:45;;;;;;;14.07;12.57;;;17.60;99.90;;;;;;5089629;28;20380;-82
2021/09/01 10:47:17;;;;;;;12.30;11.07;;;18.30;99.90;;;;;;5086114;28;20357;-85
2021/09/01 10:49:55;;;;;;;12.67;11.37;;;18.40;99.90;;;;;;5085388;28;20379;-83
2021/09/01 10:52:21;;;;;;;12.35;10.98;;;18.30;99.90;;;;;;5085873;28;20382;-84
2021/09/01 10:54:49;;;;;;;11.43;10.32;;;18.40;99.90;;;;;;5086274;28;20405;-84
2021/09/01 10:57:27;;;;;;;12.33;11.13;;;18.40;99.90;;;;;;5085366;28;20393;-84
2021/09/01 10:59:58;;;;;;;11.30;10.18;;;18.40;99.90;;;;;;5086645;28;20389;-80
2021/09/01 11:02:24;;;;;;;11.83;10.33;;;18.60;99.90;;;;;;5085514;28;20365;-85
2021/09/01 11:04:51;;;;;;;10.73;9.63;;;18.40;99.90;;;;;;5085451;28;20396;-82
2021/09/01 11:07:21;;;;;;;11.23;10.02;;;18.60;99.90;;;;;;5086289;28;20362;-83
2021/09/01 11:10:13;;;;;;;11.10;10.00;;;18.80;99.90;;;;;;5085238;28;20754;-79
2021/09/01 11:12:41;;;;;;;10.43;9.32;;;18.80;99.90;;;;;;5082313;28;20394;-81
2021/09/01 11:15:08;;;;;;;9.77;8.88;;;19.10;99.90;;;;;;5086192;28;20846;-79
2021/09/01 11:17:33;;;;;;;11.52;9.80;;;19.30;99.90;;;;;;5087168;28;20373;-81
2021/09/01 11:20:01;;;;;;;11.07;9.90;;;19.40;99.90;;;;;;5084854;28;20392;-81
2021/09/01 11:22:35;;;;;;;10.50;9.40;;;19.60;99.90;;;;;;5085898;28;20453;-83
2021/09/01 11:25:04;;;;;;;10.15;9.15;;;19.70;99.90;;;;;;5085670;28;20871;-80
2021/09/01 11:27:32;;;;;;;11.25;9.73;;;19.70;99.90;;;;;;5084855;28;21111;-80
2021/09/01 11:30:03;;;;;;;10.27;9.27;;;19.50;99.90;;;;;;5085427;28;20453;-83
2021/09/01 11:32:29;;;;;;;11.23;10.13;;;19.40;99.90;;;;;;5085293;28;20373;-83
2021/09/01 11:34:55;;;;;;;9.93;8.60;;;19.30;99.90;;;;;;5085395;28;20756;-83
2021/09/01 11:37:21;;;;;;;9.77;8.55;;;19.50;99.90;;;;;;5085749;28;21061;-83
2021/09/01 11:39:48;;;;;;;10.73;9.50;;;19.80;99.90;;;;;;5085635;28;20369;-80
2021/09/01 11:42:15;;;;;;;11.38;9.30;;;19.80;99.90;;;;;;5085675;28;20373;-81
2021/09/01 11:44:42;;;;;;;11.00;9.40;;;19.90;99.90;;;;;;5085512;28;20374;-82
2021/09/01 11:47:14;;;;;;;9.52;8.63;;;19.80;99.90;;;;;;5104427;28;20445;-81
2021/09/01 11:49:40;;;;;;;10.73;9.47;;;19.80;99.90;;;;;;5087364;28;20376;-81
2021/09/01 11:52:06;;;;;;;9.57;8.53;;;20.00;99.90;;;;;;5105646;28;20462;-81
2021/09/01 11:54:32;;;;;;;10.43;9.38;;;20.20;99.90;;;;;;5105899;28;20368;-82
2021/09/01 11:56:57;;;;;;;11.50;9.40;;;20.40;99.90;;;;;;5101279;28;20413;-83
2021/09/01 11:59:26;;;;;;;9.88;8.90;;;20.00;99.90;;;;;;5092555;28;20460;-82
2021/09/01 12:01:55;;;;;;;9.18;8.27;;;20.10;99.90;;;;;;5089139;28;20386;-81
2021/09/01 12:04:22;;;;;;;10.50;8.80;;;20.60;99.90;;;;;;5081510;28;20387;-80
2021/09/01 12:06:53;;;;;;;9.40;8.43;;;20.80;99.90;;;;;;5076777;28;20463;-83
2021/09/01 12:09:21;;;;;;;9.57;8.50;;;20.90;99.90;;;;;;5078996;28;20800;-81
2021/09/01 12:11:55;;;;;;;10.88;8.45;;;20.90;99.90;;;;;;5076048;28;20393;-86
2021/09/01 12:14:23;;;;;;;11.20;8.37;;;20.80;99.90;;;;;;5080053;28;20385;-81
2021/09/01 12:16:51;;;;;;;10.75;7.95;;;20.80;99.90;;;;;;5078871;28;20776;-82
2021/09/01 12:19:18;;;;;;;8.60;7.57;;;20.80;99.90;;;;;;5081599;28;20894;-80
2021/09/01 12:21:55;;;;;;;10.35;8.80;;;21.00;99.90;;;;;;5078319;28;20402;-81
2021/09/01 12:24:33;;;;;;;10.80;9.50;;;21.20;99.90;;;;;;5078644;28;20392;-83
2021/09/01 12:27:10;;;;;;;9.85;8.85;;;21.20;99.90;;;;;;5081439;28;20400;-83
2021/09/01 12:29:49;;;;;;;10.27;9.20;;;21.30;99.90;;;;;;5079620;28;20388;-83
2021/09/01 12:32:18;;;;;;;10.60;8.30;;;21.30;99.90;;;;;;5079976;28;20389;-81
2021/09/01 12:34:50;;;;;;;9.25;8.18;;;21.30;99.90;;;;;;5078793;28;20423;-82
2021/09/01 12:37:36;;;;;;;9.30;8.40;;;21.10;99.90;;;;;;5081443;28;20373;-81
2021/09/01 12:40:13;;;;;;;10.07;9.05;;;21.00;99.90;;;;;;5073306;28;20475;-84
2021/09/01 12:42:44;;;;;;;11.07;9.60;;;21.20;99.90;;;;;;5076652;28;20506;-82
2021/09/01 12:45:17;;;;;;;17.63;15.30;;;21.00;99.90;;;;;;5080534;28;20779;-81
2021/09/01 12:47:55;;;;;;;15.73;11.20;;;21.10;99.90;;;;;;5079042;28;21000;-83